Time;durP1;ratioP1;P1;durP2;ratioP2;P2;SDS_P1;SDS_P2;PMS_P1;PMS_P2;Temp;Humidity;BMP_temperature;BMP_pressure;BME280_temperature;BME280_humidity;BME280_pressure;Samples;Min_cycle;Max_cycle;Signal;HPM_P1;HPM_P2
2021/08/03 00:01:22;;;;;;;10.90;4.50;;;;;;;11.63;92.41;98046.86;1706821;83;20949;-73
2021/08/03 00:03:52;;;;;;;6.53;5.15;;;;;;;11.54;92.29;98046.66;1706808;84;21018;-74
2021/08/03 00:06:18;;;;;;;9.20;4.87;;;;;;;11.48;92.88;98039.10;1707008;83;21013;-77
2021/08/03 00:08:48;;;;;;;6.62;4.87;;;;;;;11.43;93.29;98040.49;1706980;84;20941;-78
2021/08/03 00:11:14;;;;;;;7.47;4.45;;;;;;;11.42;93.42;98040.23;1707110;83;21180;-78
2021/08/03 00:13:40;;;;;;;7.75;5.40;;;;;;;11.48;93.44;98034.22;1706804;84;20895;-74
2021/08/03 00:16:09;;;;;;;8.85;5.65;;;;;;;11.50;93.70;98040.98;1710513;83;21367;-79
2021/08/03 00:18:37;;;;;;;;;;;;;;;11.51;93.84;98046.66;1709446;82;21347;-73
2021/08/03 00:21:03;;;;;;;6.80;4.77;;;;;;;11.38;93.59;98048.69;1707009;83;20134;-73
2021/08/03 00:23:29;;;;;;;6.70;4.83;;;;;;;11.38;93.59;98048.69;1706796;84;21277;-73
2021/08/03 00:25:55;;;;;;;6.42;5.33;;;;;;;11.39;93.56;98046.78;1706822;82;20937;-79
2021/08/03 00:28:21;;;;;;;10.05;5.28;;;;;;;11.40;93.78;98041.62;1707050;83;20942;-78
2021/08/03 00:30:48;;;;;;;7.53;5.67;;;;;;;11.45;93.69;98042.91;1706946;83;20996;-73
2021/08/03 00:33:14;;;;;;;11.68;5.75;;;;;;;11.50;93.72;98041.52;1707073;83;21346;-73
2021/08/03 00:35:40;;;;;;;8.98;5.80;;;;;;;11.45;93.94;98039.68;1707048;83;21225;-73
2021/08/03 00:38:06;;;;;;;6.78;5.50;;;;;;;11.45;94.17;98036.97;1706935;82;21524;-73
2021/08/03 00:40:36;;;;;;;7.60;5.90;;;;;;;11.48;93.39;98036.94;1706983;83;21014;-78
2021/08/03 00:43:02;;;;;;;9.63;6.47;;;;;;;11.48;94.14;98039.65;1698480;83;21035;-73
2021/08/03 00:45:28;;;;;;;7.83;6.10;;;;;;;11.53;93.26;98036.88;1698423;83;21431;-73
2021/08/03 00:47:55;;;;;;;11.33;6.53;;;;;;;11.59;92.66;98041.17;1699688;83;21763;-74
2021/08/03 00:50:21;;;;;;;7.30;5.75;;;;;;;11.64;92.76;98041.69;1700124;82;20863;-78
2021/08/03 00:52:46;;;;;;;11.30;7.10;;;;;;;11.68;92.20;98042.72;1699219;84;20842;-79
2021/08/03 00:55:12;;;;;;;10.72;7.58;;;;;;;11.68;92.50;98046.79;1699743;82;20914;-78
2021/08/03 00:57:39;;;;;;;9.65;6.70;;;;;;;11.70;91.97;98040.52;1699513;82;20977;-78
2021/08/03 01:00:06;;;;;;;11.78;7.12;;;;;;;11.74;91.59;98039.67;1675505;84;22080;-78
2021/08/03 01:02:32;;;;;;;11.43;5.90;;;;;;;11.71;91.36;98038.09;1699104;83;21379;-79
2021/08/03 01:04:58;;;;;;;9.68;6.85;;;;;;;11.66;91.46;98038.94;1699189;82;20965;-73
2021/08/03 01:07:45;;;;;;;7.40;5.62;;;;;;;11.64;91.48;98037.61;1699741;82;20847;-78
2021/08/03 01:10:52;;;;;;;7.75;5.55;;;;;;;11.62;91.42;98036.52;1699889;84;21058;-78
2021/08/03 01:13:30;;;;;;;7.15;5.37;;;;;;;11.56;92.05;98037.69;1699526;83;21497;-76
2021/08/03 01:16:10;;;;;;;7.92;5.20;;;;;;;11.54;91.59;98043.40;1699150;84;21430;-77
2021/08/03 01:18:51;;;;;;;7.20;4.97;;;;;;;11.57;91.63;98040.11;1699008;83;20915;-79
2021/08/03 01:21:43;;;;;;;9.03;5.08;;;;;;;11.52;91.63;98037.97;1698223;84;21010;-79
2021/08/03 01:24:24;;;;;;;8.80;5.42;;;;;;;11.45;92.12;98030.70;1699056;83;20987;-78
2021/08/03 01:27:15;;;;;;;6.67;4.92;;;;;;;11.35;92.86;98032.96;1699194;83;21126;-78
2021/08/03 01:29:43;;;;;;;7.47;5.03;;;;;;;11.29;93.77;98035.47;1699665;83;20971;-74
2021/08/03 01:32:10;;;;;;;6.20;4.95;;;;;;;11.30;93.14;98025.69;1699186;83;21084;-74
2021/08/03 01:34:45;;;;;;;5.67;4.42;;;;;;;11.33;92.87;98036.52;1699306;83;21053;-77
2021/08/03 01:37:17;;;;;;;7.80;4.58;;;;;;;11.29;93.02;98037.64;1702857;83;21102;-79
2021/08/03 01:39:48;;;;;;;4.75;3.55;;;;;;;11.25;93.02;98030.34;1699190;83;21005;-73
2021/08/03 01:42:13;;;;;;;5.28;4.10;;;;;;;11.25;92.70;98030.34;1698604;83;20911;-74
2021/08/03 01:44:41;;;;;;;5.25;3.67;;;;;;;11.26;92.70;98034.67;1699321;82;20969;-79
2021/08/03 01:47:07;;;;;;;6.00;3.58;;;;;;;11.20;92.39;98031.20;1699884;83;20919;-79
2021/08/03 01:49:36;;;;;;;4.65;3.52;;;;;;;11.14;92.08;98035.04;1699357;82;20894;-79
2021/08/03 01:52:03;;;;;;;7.72;3.83;;;;;;;11.05;92.69;98036.73;1699226;82;21227;-74
2021/08/03 01:54:30;;;;;;;6.70;4.10;;;;;;;11.00;92.91;98038.11;1679260;84;20982;-73
2021/08/03 01:56:55;;;;;;;7.05;4.08;;;;;;;10.96;93.43;98038.42;1678737;84;21431;-73
2021/08/03 01:59:21;;;;;;;4.50;3.72;;;;;;;10.87;93.80;98038.21;1694828;82;21497;-74
2021/08/03 02:01:47;;;;;;;10.20;4.20;;;;;;;10.86;93.71;98042.56;1699128;83;20870;-73
2021/08/03 02:04:13;;;;;;;6.15;3.55;;;;;;;10.80;94.21;98048.55;1678495;84;23110;-79
2021/08/03 02:06:39;;;;;;;4.95;3.60;;;;;;;10.78;94.27;98045.86;1698726;84;20943;-74
2021/08/03 02:09:07;;;;;;;7.40;4.12;;;;;;;10.78;93.98;98043.97;1698952;84;20886;-73
2021/08/03 02:11:35;;;;;;;6.10;4.10;;;;;;;10.84;94.05;98044.72;1698993;82;21018;-73
2021/08/03 02:14:01;;;;;;;6.50;4.58;;;;;;;10.91;92.79;98051.45;1699248;83;20986;-73
2021/08/03 02:16:27;;;;;;;5.15;4.30;;;;;;;10.94;92.29;98046.04;1699003;82;21327;-73
2021/08/03 02:18:53;;;;;;;5.83;4.00;;;;;;;10.84;93.40;98048.24;1698921;84;21092;-78
2021/08/03 02:21:21;;;;;;;6.08;4.12;;;;;;;10.83;93.75;98048.53;1699381;82;21548;-73
2021/08/03 02:23:47;;;;;;;5.20;3.67;;;;;;;10.85;93.78;98046.34;1699274;83;20931;-73
2021/08/03 02:26:13;;;;;;;7.80;4.45;;;;;;;10.85;93.72;98049.05;1699084;83;20910;-73
2021/08/03 02:28:39;;;;;;;5.95;4.22;;;;;;;10.87;93.11;98050.95;1699112;82;20947;-73
2021/08/03 02:31:12;;;;;;;5.75;4.47;;;;;;;10.90;93.14;98046.31;1698918;82;21572;-78
2021/08/03 02:34:04;;;;;;;4.83;3.95;;;;;;;10.91;92.41;98042.52;1699346;84;21009;-77
2021/08/03 02:36:30;;;;;;;6.28;3.90;;;;;;;10.85;92.35;98046.34;1699022;83;21006;-73
2021/08/03 02:39:00;;;;;;;6.22;4.00;;;;;;;10.72;92.22;98050.49;1699034;84;20914;-79
2021/08/03 02:41:27;;;;;;;6.45;3.83;;;;;;;10.70;92.44;98049.97;1680852;83;21805;-79
2021/08/03 02:43:53;;;;;;;5.20;3.87;;;;;;;10.67;92.40;98054.03;1706784;83;21022;-73
2021/08/03 02:46:23;;;;;;;9.80;4.45;;;;;;;10.61;92.77;98055.16;1706755;82;20997;-73
2021/08/03 02:49:00;;;;;;;4.83;3.80;;;;;;;10.67;92.62;98054.03;1687086;84;21349;-74
2021/08/03 02:51:15;;;;;;;5.15;4.10;;;;;;;10.60;93.67;98047.31;1703854;84;20958;-73
2021/08/03 02:53:48;;;;;;;6.03;4.25;;;;;;;10.67;92.57;98056.73;1706811;82;21271;-73
2021/08/03 02:56:16;;;;;;;6.97;4.20;;;;;;;10.71;92.45;98057.00;1706700;83;20919;-77
2021/08/03 02:58:49;;;;;;;7.62;5.40;;;;;;;10.70;92.56;98062.16;1706998;84;21458;-78
2021/08/03 03:01:15;;;;;;;8.45;5.12;;;;;;;10.65;92.98;98068.95;1686961;84;20943;-73
2021/08/03 03:03:47;;;;;;;5.70;4.53;;;;;;;10.66;93.67;98065.96;1706881;84;20862;-79
2021/08/03 03:06:13;;;;;;;10.00;4.30;;;;;;;10.66;92.88;98067.86;1686910;84;21251;-79
2021/08/03 03:08:43;;;;;;;7.55;5.30;;;;;;;10.65;93.46;98069.77;1706760;82;21611;-73
2021/08/03 03:11:09;;;;;;;6.97;4.65;;;;;;;10.65;93.21;98069.77;1706886;84;21426;-78
2021/08/03 03:13:48;;;;;;;6.37;4.53;;;;;;;10.70;93.18;98073.81;1706677;82;20997;-79
2021/08/03 03:16:15;;;;;;;6.28;4.17;;;;;;;10.73;92.77;98075.15;1706484;84;20958;-79
2021/08/03 03:18:42;;;;;;;5.30;4.40;;;;;;;10.72;92.34;98081.11;1706679;82;21146;-79
2021/08/03 03:21:07;;;;;;;6.95;4.47;;;;;;;10.71;92.29;98082.75;1706981;84;20922;-79
2021/08/03 03:23:38;;;;;;;9.73;3.15;;;;;;;10.74;92.30;98074.86;1706949;84;20870;-79
2021/08/03 03:26:04;;;;;;;4.83;4.20;;;;;;;10.77;92.34;98077.58;1707090;83;20910;-78
2021/08/03 03:28:32;;;;;;;6.15;3.80;;;;;;;10.77;92.38;98085.71;1686465;84;20993;-77
2021/08/03 03:30:59;;;;;;;3.83;3.22;;;;;;;10.76;92.35;98085.42;1707256;84;21336;-78
2021/08/03 03:33:25;;;;;;;6.97;4.33;;;;;;;10.78;92.33;98080.55;1706920;84;21323;-72
2021/08/03 03:35:54;;;;;;;8.65;4.62;;;;;;;10.79;92.42;98090.84;1707160;83;20993;-78
2021/08/03 03:38:23;;;;;;;5.58;4.20;;;;;;;10.85;92.26;98093.77;1706788;84;20986;-79
2021/08/03 03:40:49;;;;;;;6.90;4.53;;;;;;;10.88;92.01;98096.76;1707278;82;21057;-73
2021/08/03 03:43:17;;;;;;;7.65;4.95;;;;;;;10.92;92.02;98103.77;1698584;82;21086;-79
2021/08/03 03:45:52;;;;;;;5.67;4.42;;;;;;;10.98;91.90;98111.61;1696769;84;20951;-74
2021/08/03 03:48:21;;;;;;;5.60;3.85;;;;;;;11.03;91.43;98103.19;1695407;84;21321;-73
2021/08/03 03:50:59;;;;;;;4.70;3.83;;;;;;;10.92;91.40;98096.45;1699104;83;26990;-73
2021/08/03 03:53:24;;;;;;;5.70;3.37;;;;;;;10.84;92.31;98096.23;1699023;84;20947;-73
2021/08/03 03:56:01;;;;;;;4.12;3.12;;;;;;;10.86;92.12;98104.36;1699006;82;21923;-79
2021/08/03 03:58:28;;;;;;;4.80;3.58;;;;;;;10.84;91.99;98104.36;1699666;84;20959;-77
2021/08/03 04:00:55;;;;;;;4.00;3.02;;;;;;;10.82;91.45;98103.28;1700089;82;21057;-78
2021/08/03 04:03:22;;;;;;;4.75;3.00;;;;;;;10.80;91.25;98104.11;1699215;83;21014;-77
2021/08/03 04:05:49;;;;;;;4.42;3.95;;;;;;;10.73;91.38;98108.48;1699244;83;21056;-78
2021/08/03 04:08:15;;;;;;;5.53;3.72;;;;;;;10.69;91.71;98099.84;1699165;83;21299;-73
2021/08/03 04:10:41;;;;;;;7.10;4.28;;;;;;;10.78;91.74;98109.02;1699408;83;20878;-78
2021/08/03 04:13:07;;;;;;;9.95;4.78;;;;;;;10.78;91.79;98106.30;1698609;84;20971;-72
2021/08/03 04:15:33;;;;;;;9.93;6.83;;;;;;;10.76;91.94;98107.65;1699049;83;20919;-73
2021/08/03 04:18:00;;;;;;;4.30;3.65;;;;;;;10.76;93.11;98109.00;1699502;84;20979;-73
2021/08/03 04:20:26;;;;;;;7.03;6.30;;;;;;;10.86;92.23;98103.55;1699284;83;21431;-73
2021/08/03 04:22:52;;;;;;;4.92;3.72;;;;;;;10.97;92.01;98105.92;1699579;82;21395;-73
2021/08/03 04:25:18;;;;;;;5.65;4.15;;;;;;;11.10;91.68;98105.83;1699376;84;21189;-78
2021/08/03 04:27:44;;;;;;;6.53;4.40;;;;;;;11.15;91.41;98110.42;1699605;84;20894;-78
2021/08/03 04:30:12;;;;;;;3.90;3.50;;;;;;;11.25;91.05;98112.52;1697925;84;20934;-78
2021/08/03 04:32:38;;;;;;;4.60;3.80;;;;;;;11.28;90.87;98112.52;1699287;83;21367;-73
2021/08/03 04:35:05;;;;;;;6.87;4.35;;;;;;;11.30;90.83;98112.50;1703583;83;21066;-73
2021/08/03 04:37:37;;;;;;;9.05;7.65;;;;;;;11.43;90.81;98112.94;1699099;84;20990;-73
2021/08/03 04:40:05;;;;;;;5.80;4.28;;;;;;;11.59;90.72;98115.25;1700422;83;21030;-78
2021/08/03 04:42:31;;;;;;;5.55;4.10;;;;;;;11.80;90.67;98110.52;1702551;82;20982;-73
2021/08/03 04:44:57;;;;;;;6.97;4.15;;;;;;;11.92;90.37;98114.20;1707109;84;21181;-73
2021/08/03 04:47:23;;;;;;;7.83;3.47;;;;;;;12.08;90.08;98106.16;1706907;82;21334;-79
2021/08/03 04:49:49;;;;;;;4.45;3.50;;;;;;;12.27;89.90;98107.59;1707039;82;20882;-79
2021/08/03 04:52:15;;;;;;;6.20;3.65;;;;;;;12.42;89.31;98110.70;1706979;84;20910;-73
2021/08/03 04:54:41;;;;;;;6.53;4.10;;;;;;;12.44;88.63;98113.93;1686994;84;21548;-79
2021/08/03 04:57:07;;;;;;;4.03;3.40;;;;;;;12.37;88.48;98102.59;1706983;84;21293;-79
2021/08/03 04:59:33;;;;;;;5.47;3.35;;;;;;;12.38;88.43;98112.36;1706972;83;20913;-79
2021/08/03 05:02:01;;;;;;;4.37;3.52;;;;;;;12.43;88.35;98106.33;1706904;82;20944;-78
2021/08/03 05:04:29;;;;;;;3.72;3.27;;;;;;;12.46;88.34;98111.72;1707131;82;20976;-73
2021/08/03 05:06:54;;;;;;;4.22;3.60;;;;;;;12.54;88.24;98112.45;1710342;83;21391;-79
2021/08/03 05:09:20;;;;;;;5.40;3.45;;;;;;;12.60;88.34;98108.58;1707081;84;21174;-73
2021/08/03 05:11:46;;;;;;;5.30;3.22;;;;;;;12.80;87.68;98114.85;1707054;84;20885;-73
2021/08/03 05:14:12;;;;;;;9.08;3.77;;;;;;;12.81;87.89;98100.16;1706976;82;21536;-73
2021/08/03 05:16:38;;;;;;;7.10;4.15;;;;;;;12.97;87.83;98110.53;1706893;82;21500;-79
2021/08/03 05:19:04;;;;;;;7.53;3.83;;;;;;;12.98;87.23;98103.98;1706719;83;20867;-73
2021/08/03 05:21:30;;;;;;;4.90;3.35;;;;;;;13.16;87.21;98111.09;1707200;84;21336;-74
2021/08/03 05:23:56;;;;;;;4.92;3.75;;;;;;;13.34;86.27;98103.53;1706902;82;20866;-78
2021/08/03 05:26:22;;;;;;;3.67;2.98;;;;;;;13.36;86.54;98100.52;1707319;84;20882;-73
2021/08/03 05:28:48;;;;;;;9.05;4.30;;;;;;;13.54;85.90;98105.12;1706814;83;21348;-74
2021/08/03 05:31:14;;;;;;;7.58;4.17;;;;;;;13.58;85.70;98108.05;1707137;83;20886;-73
2021/08/03 05:33:40;;;;;;;5.17;2.65;;;;;;;13.67;86.20;98104.38;1706875;84;21095;-74
2021/08/03 05:36:07;;;;;;;6.37;3.52;;;;;;;13.90;85.43;98104.52;1706990;83;20998;-79
2021/08/03 05:38:33;;;;;;;4.47;3.27;;;;;;;13.96;85.62;98100.61;1706736;83;20962;-73
2021/08/03 05:40:59;;;;;;;4.33;3.30;;;;;;;14.11;85.58;98101.15;1706999;84;20949;-74
2021/08/03 05:43:25;;;;;;;5.65;3.47;;;;;;;14.20;85.25;98096.37;1709514;83;20929;-79
2021/08/03 05:45:50;;;;;;;5.60;4.30;;;;;;;14.39;85.19;98097.08;1707107;83;21176;-78
2021/08/03 05:48:16;;;;;;;7.12;3.58;;;;;;;14.56;84.93;98101.96;1706854;82;20953;-79
2021/08/03 05:50:42;;;;;;;8.55;4.58;;;;;;;14.63;84.14;98095.00;1706919;82;20945;-79
2021/08/03 05:53:08;;;;;;;11.68;4.00;;;;;;;14.81;84.25;98093.26;1706946;84;20835;-79
2021/08/03 05:55:34;;;;;;;8.48;3.70;;;;;;;15.00;83.91;98090.39;1707104;83;20843;-74
2021/08/03 05:58:00;;;;;;;6.90;4.25;;;;;;;15.18;83.56;98089.98;1706969;83;21131;-73
2021/08/03 06:00:26;;;;;;;8.73;4.62;;;;;;;15.26;81.70;98089.81;1706926;82;20858;-79
2021/08/03 06:02:52;;;;;;;6.22;4.03;;;;;;;15.16;81.86;98091.66;1706832;82;21017;-79
2021/08/03 06:05:18;;;;;;;6.65;3.85;;;;;;;15.21;80.80;98098.39;1707068;83;20878;-74
2021/08/03 06:07:44;;;;;;;5.70;4.08;;;;;;;15.17;81.57;98089.19;1706852;83;20959;-79
2021/08/03 06:10:15;;;;;;;8.28;4.47;;;;;;;15.26;81.76;98088.45;1686622;84;21307;-74
2021/08/03 06:12:48;;;;;;;7.08;4.58;;;;;;;15.41;83.10;98088.91;1706700;82;20970;-72
2021/08/03 06:15:14;;;;;;;8.23;5.97;;;;;;;15.65;81.71;98088.64;1707092;84;20954;-79
2021/08/03 06:17:47;;;;;;;4.55;2.90;;;;;;;15.62;81.22;98089.24;1706754;84;20886;-79
2021/08/03 06:20:13;;;;;;;6.83;3.80;;;;;;;15.58;80.44;98081.41;1706722;83;20911;-73
2021/08/03 06:22:39;;;;;;;10.45;4.37;;;;;;;15.63;82.19;98085.39;1707085;83;21081;-74
2021/08/03 06:25:07;;;;;;;7.05;3.85;;;;;;;15.89;82.71;98084.19;1706948;83;21359;-79
2021/08/03 06:27:34;;;;;;;6.10;3.33;;;;;;;16.08;81.65;98083.44;1707058;83;20955;-79
2021/08/03 06:30:03;;;;;;;6.53;3.52;;;;;;;16.34;81.18;98084.11;1706647;84;20954;-73
2021/08/03 06:32:30;;;;;;;4.40;4.00;;;;;;;16.57;80.97;98089.73;1706939;83;21005;-74
2021/08/03 06:34:56;;;;;;;5.83;3.45;;;;;;;16.77;80.04;98084.84;1706707;83;21434;-74
2021/08/03 06:37:22;;;;;;;7.17;4.00;;;;;;;16.94;79.64;98085.45;1707012;83;20819;-79
2021/08/03 06:39:48;;;;;;;6.90;4.08;;;;;;;17.11;79.41;98091.75;1706885;84;20917;-74
2021/08/03 06:42:46;;;;;;;9.50;3.92;;;;;;;17.35;79.99;98087.75;1707021;82;21457;-72
2021/08/03 06:45:16;;;;;;;;;;;;;;;17.55;78.52;98087.66;1709807;84;21029;-73
2021/08/03 06:47:54;;;;;;;8.38;4.25;;;;;;;17.75;77.62;98080.16;1675623;85;21150;-74
2021/08/03 06:50:24;;;;;;;4.43;3.33;;;;;;;17.93;77.95;98077.61;1660805;86;21001;-79
2021/08/03 06:52:50;;;;;;;7.87;3.62;;;;;;;18.12;77.09;98083.31;1655744;86;21025;-80
2021/08/03 06:55:15;;;;;;;10.15;5.60;;;;;;;18.20;75.82;98086.03;1656034;86;20885;-74
2021/08/03 06:57:47;;;;;;;4.60;2.65;;;;;;;18.23;75.08;98088.67;1655772;86;20984;-73
2021/08/03 07:00:14;;;;;;;6.17;3.15;;;;;;;18.19;75.31;98085.77;1655731;86;21496;-75
2021/08/03 07:02:46;;;;;;;3.45;2.40;;;;;;;18.37;74.39;98087.08;1655608;86;21441;-79
2021/08/03 07:05:19;;;;;;;6.75;2.90;;;;;;;18.78;74.71;98089.98;1655849;85;21020;-74
2021/08/03 07:07:45;;;;;;;5.45;2.70;;;;;;;19.31;74.01;98091.27;1655328;86;20957;-79
2021/08/03 07:10:13;;;;;;;3.08;2.10;;;;;;;19.45;69.68;98089.03;1655924;86;20874;-79
2021/08/03 07:12:44;;;;;;;4.45;2.77;;;;;;;19.57;69.10;98086.13;1655835;86;21237;-79
2021/08/03 07:15:12;;;;;;;4.95;2.35;;;;;;;19.65;69.82;98082.50;1655492;85;21001;-73
2021/08/03 07:17:40;;;;;;;3.57;2.70;;;;;;;19.89;69.54;98083.17;1655919;86;20921;-79
2021/08/03 07:20:08;;;;;;;3.15;2.30;;;;;;;19.78;69.11;98081.99;1655807;86;20945;-79
2021/08/03 07:22:36;;;;;;;2.95;2.33;;;;;;;19.91;67.45;98080.87;1655671;86;21441;-74
2021/08/03 07:25:03;;;;;;;2.40;2.17;;;;;;;20.00;66.34;98085.17;1656050;85;21144;-79
2021/08/03 07:27:29;;;;;;;3.25;2.12;;;;;;;20.28;65.75;98082.58;1655632;86;21474;-74
2021/08/03 07:29:55;;;;;;;5.50;2.80;;;;;;;20.79;64.96;98082.30;1655920;85;20957;-74
2021/08/03 07:32:21;;;;;;;3.95;2.60;;;;;;;21.52;66.16;98076.66;1655620;86;20874;-74
2021/08/03 07:34:47;;;;;;;3.45;2.05;;;;;;;22.29;62.08;98067.33;1655923;86;20937;-79
2021/08/03 07:37:13;;;;;;;3.10;2.27;;;;;;;22.40;62.02;98069.80;1655909;86;21144;-74
2021/08/03 07:39:40;;;;;;;5.78;2.42;;;;;;;22.80;61.92;98065.43;1655846;86;20978;-74
2021/08/03 07:42:06;;;;;;;3.37;2.17;;;;;;;22.98;60.55;98068.05;1655486;86;20961;-79
2021/08/03 07:44:33;;;;;;;2.80;2.08;;;;;;;23.18;56.76;98072.25;1648294;85;21018;-79
2021/08/03 07:46:59;;;;;;;4.05;1.98;;;;;;;23.41;57.76;98070.37;1645666;87;21044;-80
2021/08/03 07:49:25;;;;;;;2.77;2.22;;;;;;;24.33;56.67;98072.00;1645767;87;21047;-74
2021/08/03 07:51:52;;;;;;;2.72;1.90;;;;;;;24.35;55.95;98069.07;1645472;87;20981;-74
2021/08/03 07:54:18;;;;;;;5.30;1.92;;;;;;;24.22;53.99;98066.25;1645489;87;20962;-79
2021/08/03 07:56:44;;;;;;;4.85;1.90;;;;;;;24.70;55.29;98065.32;1645643;87;21049;-79
2021/08/03 07:59:10;;;;;;;3.95;2.35;;;;;;;25.26;53.89;98060.41;1644832;87;20926;-79
2021/08/03 08:01:36;;;;;;;2.65;1.90;;;;;;;25.17;51.44;98057.13;1645537;87;21166;-75
2021/08/03 08:04:02;;;;;;;3.55;2.10;;;;;;;25.36;52.41;98059.75;1626602;87;20990;-80
2021/08/03 08:06:28;;;;;;;3.08;2.45;;;;;;;25.78;50.73;98059.50;1645829;87;21096;-75
2021/08/03 08:08:54;;;;;;;5.87;2.37;;;;;;;26.29;51.58;98053.88;1645556;87;21500;-75
2021/08/03 08:11:20;;;;;;;5.70;2.30;;;;;;;26.60;50.74;98054.79;1645948;86;20961;-80
2021/08/03 08:13:46;;;;;;;3.02;2.17;;;;;;;26.78;49.05;98049.95;1645596;86;21114;-81
2021/08/03 08:16:12;;;;;;;3.10;2.40;;;;;;;26.99;45.65;98051.47;1645688;87;21004;-80
2021/08/03 08:18:38;;;;;;;4.25;2.10;;;;;;;27.32;46.55;98046.93;1645665;87;20910;-80
2021/08/03 08:21:04;;;;;;;2.98;2.05;;;;;;;27.72;46.13;98043.95;1626962;87;20886;-76
2021/08/03 08:23:30;;;;;;;3.33;2.20;;;;;;;27.67;42.94;98044.92;1645495;86;20978;-75
2021/08/03 08:25:58;;;;;;;3.40;2.62;;;;;;;27.86;42.87;98043.22;1645828;86;21241;-80
2021/08/03 08:28:25;;;;;;;3.08;1.92;;;;;;;28.19;43.93;98051.02;1645697;87;21501;-76
2021/08/03 08:30:51;;;;;;;4.90;2.00;;;;;;;27.98;40.02;98046.21;1626385;87;21070;-80
2021/08/03 08:33:17;;;;;;;3.00;1.75;;;;;;;28.84;42.43;98040.91;1626692;87;20925;-81
2021/08/03 08:35:44;;;;;;;4.25;2.15;;;;;;;28.44;40.33;98046.30;1645854;87;21016;-81
2021/08/03 08:38:10;;;;;;;4.08;2.08;;;;;;;28.44;39.77;98044.90;1645695;87;21192;-81
2021/08/03 08:40:35;;;;;;;2.62;1.82;;;;;;;28.49;40.85;98040.34;1646176;87;21650;-77
2021/08/03 08:43:02;;;;;;;3.58;1.80;;;;;;;29.10;37.91;98036.11;1645837;86;20957;-81
2021/08/03 08:45:30;;;;;;;11.40;3.27;;;;;;;29.05;39.96;98038.70;1650628;85;21441;-82
2021/08/03 08:47:56;;;;;;;4.57;1.67;;;;;;;29.86;39.57;98038.84;1655770;86;21041;-81
2021/08/03 08:50:22;;;;;;;3.50;2.08;;;;;;;29.88;35.44;98035.82;1655746;86;21337;-77
2021/08/03 08:52:50;;;;;;;2.27;1.82;;;;;;;30.71;36.86;98031.89;1655326;86;20958;-81
2021/08/03 08:55:17;;;;;;;2.67;1.75;;;;;;;30.75;35.73;98025.05;1655624;86;20953;-76
2021/08/03 08:57:43;;;;;;;1.98;1.37;;;;;;;30.80;35.03;98026.61;1655548;86;21104;-81
2021/08/03 09:00:10;;;;;;;2.08;1.77;;;;;;;30.81;35.84;98022.00;1655700;86;20973;-76
2021/08/03 09:02:41;;;;;;;3.33;1.57;;;;;;;31.65;33.86;98021.48;1655707;85;21246;-77
2021/08/03 09:05:09;;;;;;;1.62;1.52;;;;;;;31.92;34.50;98024.34;1655626;86;20938;-81
2021/08/03 09:07:53;;;;;;;6.15;1.55;;;;;;;32.26;34.64;98021.42;1655639;86;21024;-80
2021/08/03 09:10:40;;;;;;;3.80;1.37;;;;;;;32.58;33.66;98017.34;1636942;86;21044;-79
2021/08/03 09:13:20;;;;;;;3.30;2.02;;;;;;;31.66;33.18;98021.66;1655524;86;21406;-81
2021/08/03 09:15:59;;;;;;;2.22;1.80;;;;;;;32.86;31.61;98020.28;1655615;86;21889;-81
2021/08/03 09:18:38;;;;;;;4.65;1.98;;;;;;;32.93;30.74;98025.77;1655408;86;21382;-81
2021/08/03 09:21:05;;;;;;;3.30;1.70;;;;;;;33.04;30.93;98024.95;1655634;86;20985;-77
2021/08/03 09:23:47;;;;;;;2.87;1.50;;;;;;;33.38;30.99;98021.91;1658819;86;21044;-81
2021/08/03 09:26:14;;;;;;;2.08;1.30;;;;;;;33.83;30.65;98019.16;1682271;85;21447;-75
2021/08/03 09:29:03;;;;;;;2.98;1.35;;;;;;;34.09;29.29;98017.40;1655343;85;21358;-76
2021/08/03 09:31:31;;;;;;;1.82;1.60;;;;;;;33.85;29.49;98006.90;1655697;86;21025;-75
2021/08/03 09:33:57;;;;;;;4.40;1.55;;;;;;;34.53;27.80;98011.77;1655455;86;28538;-75
2021/08/03 09:36:51;;;;;;;2.20;1.37;;;;;;;34.53;27.92;98004.73;1655725;86;20882;-80
2021/08/03 09:39:48;;;;;;;1.12;1.02;;;;;;;34.83;27.21;98004.95;1655458;86;20957;-80
2021/08/03 09:42:20;;;;;;;6.92;1.72;;;;;;;34.01;28.49;97998.50;1705519;84;21511;-76
2021/08/03 09:45:00;;;;;;;1.20;1.10;;;;;;;34.96;26.59;98001.62;1710980;83;21017;-76
2021/08/03 09:47:28;;;;;;;1.50;1.20;;;;;;;34.86;26.70;98000.45;1707003;83;20923;-80
2021/08/03 09:50:06;;;;;;;3.20;1.57;;;;;;;35.12;26.08;97993.72;1706798;83;21022;-75
2021/08/03 09:52:35;;;;;;;1.98;1.12;;;;;;;35.64;26.42;97988.45;1706976;84;21440;-77
2021/08/03 09:55:16;;;;;;;1.62;1.20;;;;;;;36.30;25.45;97991.02;1706611;83;21454;-81
2021/08/03 09:57:44;;;;;;;2.90;1.80;;;;;;;36.11;24.03;97995.66;1706963;83;20967;-81
2021/08/03 10:00:27;;;;;;;5.05;1.42;;;;;;;36.19;23.95;97990.58;1707005;82;21013;-76
2021/08/03 10:02:53;;;;;;;3.80;1.20;;;;;;;36.04;23.51;97984.60;1707721;82;20954;-80
2021/08/03 10:05:20;;;;;;;3.02;1.15;;;;;;;33.24;27.46;97989.87;1707658;84;20990;-80
2021/08/03 10:07:47;;;;;;;1.33;1.10;;;;;;;32.36;28.29;97999.28;1707227;82;21240;-80
2021/08/03 10:10:13;;;;;;;1.75;1.32;;;;;;;31.47;29.08;97996.33;1706959;84;21416;-81
2021/08/03 10:12:39;;;;;;;1.95;1.70;;;;;;;29.97;31.19;97994.27;1706922;84;21013;-76
2021/08/03 10:15:13;;;;;;;5.10;1.70;;;;;;;28.83;33.27;97997.50;1706753;84;20854;-75
2021/08/03 10:17:39;;;;;;;21.17;15.93;;;;;;;28.53;33.68;97995.13;1706899;83;21001;-75
2021/08/03 10:20:11;;;;;;;11.55;7.87;;;;;;;27.78;35.75;97999.25;1706748;84;21178;-76
2021/08/03 10:22:56;;;;;;;2.60;1.52;;;;;;;27.25;37.28;97996.23;1706916;83;20958;-77
2021/08/03 10:25:22;;;;;;;2.27;1.60;;;;;;;26.73;37.91;97993.34;1707006;83;20978;-75
2021/08/03 10:27:50;;;;;;;2.05;1.37;;;;;;;26.46;38.26;97996.92;1686860;84;20893;-75
2021/08/03 10:30:31;;;;;;;2.35;1.30;;;;;;;27.75;35.77;97988.87;1686614;84;21021;-80
2021/08/03 10:33:00;;;;;;;3.22;1.47;;;;;;;30.04;33.42;97987.24;1706779;84;21289;-80
2021/08/03 10:35:47;;;;;;;4.08;1.47;;;;;;;29.42;34.16;97987.19;1706912;82;20978;-76
2021/08/03 10:38:14;;;;;;;1.50;1.10;;;;;;;28.41;35.74;97984.41;1706842;83;21065;-79
2021/08/03 10:40:56;;;;;;;2.20;1.20;;;;;;;27.54;37.08;97984.04;1707123;83;21450;-76
2021/08/03 10:43:39;;;;;;;3.92;1.40;;;;;;;26.92;37.60;97979.97;1706845;83;21065;-76
2021/08/03 10:46:17;;;;;;;3.00;1.45;;;;;;;26.73;38.66;97978.05;1706933;83;21806;-75
2021/08/03 10:48:43;;;;;;;4.87;1.40;;;;;;;27.61;37.78;97970.75;1706909;83;20970;-80
2021/08/03 10:51:24;;;;;;;2.20;1.37;;;;;;;27.12;38.86;97972.75;1707153;83;21037;-81
2021/08/03 10:54:02;;;;;;;2.67;1.50;;;;;;;26.58;39.62;97973.81;1706801;83;21474;-80
2021/08/03 10:56:50;;;;;;;4.30;1.52;;;;;;;26.34;39.88;97975.78;1707226;83;20973;-80
2021/08/03 10:59:37;;;;;;;2.67;2.00;;;;;;;26.18;40.82;97969.69;1706956;83;21330;-74
2021/08/03 11:02:11;;;;;;;2.47;1.80;;;;;;;26.62;39.90;97960.72;1707612;84;20970;-79
2021/08/03 11:04:54;;;;;;;2.72;1.60;;;;;;;29.95;35.29;97965.96;1705973;82;21351;-81
2021/08/03 11:07:34;;;;;;;2.33;1.67;;;;;;;28.93;35.28;97966.03;1707063;83;20962;-77
2021/08/03 11:10:20;;;;;;;1.87;1.40;;;;;;;27.98;37.23;97970.44;1706934;82;20973;-75
2021/08/03 11:12:48;;;;;;;2.80;1.40;;;;;;;27.10;36.87;97958.45;1706933;83;21949;-76
2021/08/03 11:15:25;;;;;;;2.35;1.50;;;;;;;26.81;38.37;97954.67;1706526;83;20997;-76
2021/08/03 11:17:56;;;;;;;6.03;1.60;;;;;;;26.60;39.26;97951.98;1707051;83;21020;-79
2021/08/03 11:20:46;;;;;;;2.45;1.42;;;;;;;26.59;38.88;97947.61;1706833;83;20954;-74
2021/08/03 11:23:16;;;;;;;3.95;1.70;;;;;;;26.28;39.93;97955.88;1706881;83;21435;-75
2021/08/03 11:25:47;;;;;;;6.35;1.92;;;;;;;25.85;41.48;97956.91;1706507;84;21102;-80
2021/08/03 11:28:21;;;;;;;4.30;1.60;;;;;;;26.52;40.85;97960.66;1707114;82;21017;-79
2021/08/03 11:30:50;;;;;;;2.45;1.80;;;;;;;28.59;36.18;97953.73;1706983;83;20963;-75
2021/08/03 11:33:18;;;;;;;4.60;2.30;;;;;;;27.03;38.13;97950.03;1706847;83;20950;-75
2021/08/03 11:35:44;;;;;;;2.72;1.82;;;;;;;26.47;40.41;97956.84;1707018;84;20969;-75
2021/08/03 11:38:14;;;;;;;2.12;1.50;;;;;;;26.32;41.55;97960.06;1706928;83;21180;-76
2021/08/03 11:40:41;;;;;;;2.80;1.37;;;;;;;27.54;38.50;97955.42;1706392;83;21481;-76
2021/08/03 11:43:07;;;;;;;5.50;1.62;;;;;;;27.52;39.20;97954.42;1687490;84;20966;-76
2021/08/03 11:45:36;;;;;;;4.45;3.33;;;;;;;28.77;36.32;97951.70;1712017;82;21428;-74